sensor_id;sensor_type;location;lat;lon;timestamp;P1;durP1;ratioP1;P2;durP2;ratioP2
70183;SDS011;57554;51.546;6.776;2023-05-20T00:00:57;5.10;;;2.38;;
70183;SDS011;57554;51.546;6.776;2023-05-20T00:03:23;7.25;;;2.30;;
70183;SDS011;57554;51.546;6.776;2023-05-20T00:05:49;7.70;;;2.40;;
70183;SDS011;57554;51.546;6.776;2023-05-20T00:08:14;5.65;;;2.45;;
70183;SDS011;57554;51.546;6.776;2023-05-20T00:10:42;6.53;;;2.40;;
70183;SDS011;57554;51.546;6.776;2023-05-20T00:13:26;6.50;;;2.10;;
70183;SDS011;57554;51.546;6.776;2023-05-20T00:15:52;5.65;;;2.10;;
70183;SDS011;57554;51.546;6.776;2023-05-20T00:18:17;6.20;;;2.22;;
70183;SDS011;57554;51.546;6.776;2023-05-20T00:20:43;5.78;;;2.10;;
70183;SDS011;57554;51.546;6.776;2023-05-20T00:23:09;5.22;;;2.30;;
70183;SDS011;57554;51.546;6.776;2023-05-20T00:25:34;5.88;;;2.40;;
70183;SDS011;57554;51.546;6.776;2023-05-20T00:28:00;5.45;;;2.72;;
70183;SDS011;57554;51.546;6.776;2023-05-20T00:30:29;6.43;;;2.38;;
70183;SDS011;57554;51.546;6.776;2023-05-20T00:32:54;9.00;;;2.65;;
70183;SDS011;57554;51.546;6.776;2023-05-20T00:35:20;6.90;;;2.42;;
70183;SDS011;57554;51.546;6.776;2023-05-20T00:37:46;5.78;;;2.50;;
70183;SDS011;57554;51.546;6.776;2023-05-20T00:40:11;7.28;;;2.38;;
70183;SDS011;57554;51.546;6.776;2023-05-20T00:42:37;5.45;;;2.25;;
70183;SDS011;57554;51.546;6.776;2023-05-20T00:45:03;5.88;;;2.38;;
70183;SDS011;57554;51.546;6.776;2023-05-20T00:47:34;6.30;;;2.50;;
70183;SDS011;57554;51.546;6.776;2023-05-20T00:50:01;6.38;;;2.20;;
70183;SDS011;57554;51.546;6.776;2023-05-20T00:52:28;6.93;;;3.25;;
70183;SDS011;57554;51.546;6.776;2023-05-20T00:54:55;6.45;;;2.60;;
70183;SDS011;57554;51.546;6.776;2023-05-20T00:57:22;6.35;;;2.75;;
70183;SDS011;57554;51.546;6.776;2023-05-20T00:59:57;6.43;;;2.20;;
70183;SDS011;57554;51.546;6.776;2023-05-20T01:02:23;6.93;;;2.63;;
70183;SDS011;57554;51.546;6.776;2023-05-20T01:08:11;6.80;;;2.63;;
70183;SDS011;57554;51.546;6.776;2023-05-20T01:10:38;5.60;;;2.22;;
70183;SDS011;57554;51.546;6.776;2023-05-20T01:13:09;7.35;;;2.70;;
70183;SDS011;57554;51.546;6.776;2023-05-20T01:15:36;8.55;;;2.60;;
70183;SDS011;57554;51.546;6.776;2023-05-20T01:18:04;5.80;;;2.05;;
70183;SDS011;57554;51.546;6.776;2023-05-20T01:20:37;11.48;;;2.53;;
70183;SDS011;57554;51.546;6.776;2023-05-20T01:23:03;6.82;;;2.40;;
70183;SDS011;57554;51.546;6.776;2023-05-20T01:28:51;7.20;;;2.67;;
70183;SDS011;57554;51.546;6.776;2023-05-20T01:31:18;7.35;;;2.33;;
70183;SDS011;57554;51.546;6.776;2023-05-20T01:33:49;6.20;;;2.45;;
70183;SDS011;57554;51.546;6.776;2023-05-20T01:36:18;6.65;;;2.38;;
70183;SDS011;57554;51.546;6.776;2023-05-20T01:38:46;5.75;;;2.55;;
70183;SDS011;57554;51.546;6.776;2023-05-20T01:41:13;6.38;;;2.60;;
70183;SDS011;57554;51.546;6.776;2023-05-20T01:43:45;5.45;;;2.70;;
70183;SDS011;57554;51.546;6.776;2023-05-20T01:46:14;8.45;;;2.55;;
70183;SDS011;57554;51.546;6.776;2023-05-20T01:48:39;8.40;;;2.50;;
70183;SDS011;57554;51.546;6.776;2023-05-20T01:51:05;7.88;;;3.00;;
70183;SDS011;57554;51.546;6.776;2023-05-20T01:53:30;6.32;;;2.65;;
70183;SDS011;57554;51.546;6.776;2023-05-20T01:55:56;7.40;;;2.55;;
70183;SDS011;57554;51.546;6.776;2023-05-20T01:58:22;6.85;;;2.40;;
70183;SDS011;57554;51.546;6.776;2023-05-20T02:00:47;7.20;;;2.20;;
70183;SDS011;57554;51.546;6.776;2023-05-20T02:03:13;4.95;;;2.30;;
70183;SDS011;57554;51.546;6.776;2023-05-20T02:05:39;6.47;;;2.60;;
70183;SDS011;57554;51.546;6.776;2023-05-20T02:08:05;5.70;;;2.35;;
70183;SDS011;57554;51.546;6.776;2023-05-20T02:10:31;8.05;;;2.63;;
70183;SDS011;57554;51.546;6.776;2023-05-20T02:12:56;6.38;;;2.58;;
70183;SDS011;57554;51.546;6.776;2023-05-20T02:15:23;9.60;;;2.95;;
70183;SDS011;57554;51.546;6.776;2023-05-20T02:17:48;9.80;;;2.78;;
70183;SDS011;57554;51.546;6.776;2023-05-20T02:20:14;7.03;;;2.72;;
70183;SDS011;57554;51.546;6.776;2023-05-20T02:22:45;6.93;;;2.78;;
70183;SDS011;57554;51.546;6.776;2023-05-20T02:25:17;8.75;;;2.78;;
70183;SDS011;57554;51.546;6.776;2023-05-20T02:27:49;9.68;;;2.67;;
70183;SDS011;57554;51.546;6.776;2023-05-20T02:30:18;6.57;;;2.38;;
70183;SDS011;57554;51.546;6.776;2023-05-20T02:32:43;8.73;;;3.03;;
70183;SDS011;57554;51.546;6.776;2023-05-20T02:35:09;6.07;;;2.75;;
70183;SDS011;57554;51.546;6.776;2023-05-20T02:40:57;5.57;;;2.50;;
70183;SDS011;57554;51.546;6.776;2023-05-20T02:43:23;7.35;;;2.70;;
70183;SDS011;57554;51.546;6.776;2023-05-20T02:45:52;7.32;;;2.78;;
70183;SDS011;57554;51.546;6.776;2023-05-20T02:48:21;5.43;;;2.88;;
70183;SDS011;57554;51.546;6.776;2023-05-20T02:50:47;6.80;;;3.00;;
70183;SDS011;57554;51.546;6.776;2023-05-20T02:53:13;8.35;;;2.70;;
70183;SDS011;57554;51.546;6.776;2023-05-20T02:55:39;8.38;;;3.00;;
70183;SDS011;57554;51.546;6.776;2023-05-20T02:58:05;8.30;;;3.00;;
70183;SDS011;57554;51.546;6.776;2023-05-20T03:00:30;8.63;;;2.85;;
70183;SDS011;57554;51.546;6.776;2023-05-20T03:03:02;5.97;;;2.60;;
70183;SDS011;57554;51.546;6.776;2023-05-20T03:05:28;5.78;;;2.92;;
70183;SDS011;57554;51.546;6.776;2023-05-20T03:07:53;7.53;;;2.75;;
70183;SDS011;57554;51.546;6.776;2023-05-20T03:10:19;7.68;;;2.50;;
70183;SDS011;57554;51.546;6.776;2023-05-20T03:12:45;8.82;;;3.00;;
70183;SDS011;57554;51.546;6.776;2023-05-20T03:15:11;8.88;;;3.30;;
70183;SDS011;57554;51.546;6.776;2023-05-20T03:17:39;6.90;;;2.80;;
70183;SDS011;57554;51.546;6.776;2023-05-20T03:20:05;7.40;;;2.85;;
70183;SDS011;57554;51.546;6.776;2023-05-20T03:22:32;7.85;;;3.08;;
70183;SDS011;57554;51.546;6.776;2023-05-20T03:24:57;7.75;;;3.30;;
70183;SDS011;57554;51.546;6.776;2023-05-20T03:27:24;6.68;;;2.63;;
70183;SDS011;57554;51.546;6.776;2023-05-20T03:29:50;7.75;;;3.20;;
70183;SDS011;57554;51.546;6.776;2023-05-20T03:32:18;11.25;;;3.40;;
70183;SDS011;57554;51.546;6.776;2023-05-20T03:34:50;6.45;;;2.60;;
70183;SDS011;57554;51.546;6.776;2023-05-20T03:37:16;7.55;;;2.88;;
70183;SDS011;57554;51.546;6.776;2023-05-20T03:39:42;8.30;;;2.90;;
70183;SDS011;57554;51.546;6.776;2023-05-20T03:42:07;8.30;;;3.55;;
70183;SDS011;57554;51.546;6.776;2023-05-20T03:44:39;6.75;;;3.15;;
70183;SDS011;57554;51.546;6.776;2023-05-20T03:47:04;6.88;;;3.00;;
70183;SDS011;57554;51.546;6.776;2023-05-20T03:49:30;7.35;;;3.38;;
70183;SDS011;57554;51.546;6.776;2023-05-20T03:51:56;7.05;;;2.95;;
70183;SDS011;57554;51.546;6.776;2023-05-20T03:54:21;8.77;;;3.13;;
70183;SDS011;57554;51.546;6.776;2023-05-20T03:56:47;7.22;;;3.28;;
70183;SDS011;57554;51.546;6.776;2023-05-20T03:59:13;6.45;;;3.30;;
70183;SDS011;57554;51.546;6.776;2023-05-20T04:05:01;6.70;;;2.95;;
70183;SDS011;57554;51.546;6.776;2023-05-20T04:07:26;8.20;;;3.00;;
70183;SDS011;57554;51.546;6.776;2023-05-20T04:09:56;8.40;;;3.03;;
70183;SDS011;57554;51.546;6.776;2023-05-20T04:12:23;7.95;;;3.13;;
70183;SDS011;57554;51.546;6.776;2023-05-20T04:14:54;9.65;;;3.53;;
70183;SDS011;57554;51.546;6.776;2023-05-20T04:17:32;7.47;;;3.00;;
70183;SDS011;57554;51.546;6.776;2023-05-20T04:20:01;7.60;;;3.08;;
70183;SDS011;57554;51.546;6.776;2023-05-20T04:22:29;5.55;;;2.92;;
70183;SDS011;57554;51.546;6.776;2023-05-20T04:24:55;7.97;;;3.08;;
70183;SDS011;57554;51.546;6.776;2023-05-20T04:27:20;6.32;;;3.00;;
70183;SDS011;57554;51.546;6.776;2023-05-20T04:29:47;9.07;;;3.25;;
70183;SDS011;57554;51.546;6.776;2023-05-20T04:32:13;7.78;;;3.50;;
70183;SDS011;57554;51.546;6.776;2023-05-20T04:34:41;7.07;;;3.05;;
70183;SDS011;57554;51.546;6.776;2023-05-20T04:37:06;6.63;;;3.25;;
70183;SDS011;57554;51.546;6.776;2023-05-20T04:39:33;9.35;;;3.35;;
70183;SDS011;57554;51.546;6.776;2023-05-20T04:42:01;7.43;;;3.15;;
70183;SDS011;57554;51.546;6.776;2023-05-20T04:44:37;8.23;;;3.38;;
70183;SDS011;57554;51.546;6.776;2023-05-20T04:47:03;7.40;;;3.30;;
70183;SDS011;57554;51.546;6.776;2023-05-20T04:49:31;6.60;;;3.50;;
70183;SDS011;57554;51.546;6.776;2023-05-20T04:51:57;8.65;;;3.55;;
70183;SDS011;57554;51.546;6.776;2023-05-20T04:54:24;7.22;;;3.28;;
70183;SDS011;57554;51.546;6.776;2023-05-20T04:56:50;8.57;;;3.53;;
70183;SDS011;57554;51.546;6.776;2023-05-20T04:59:16;8.30;;;3.40;;
70183;SDS011;57554;51.546;6.776;2023-05-20T05:01:41;8.15;;;3.17;;
70183;SDS011;57554;51.546;6.776;2023-05-20T05:04:07;7.13;;;3.40;;
70183;SDS011;57554;51.546;6.776;2023-05-20T05:06:33;7.32;;;3.28;;
70183;SDS011;57554;51.546;6.776;2023-05-20T05:08:58;6.68;;;3.40;;
70183;SDS011;57554;51.546;6.776;2023-05-20T05:11:24;10.65;;;3.35;;
70183;SDS011;57554;51.546;6.776;2023-05-20T05:13:50;10.52;;;3.60;;
70183;SDS011;57554;51.546;6.776;2023-05-20T05:16:16;8.93;;;3.28;;
70183;SDS011;57554;51.546;6.776;2023-05-20T05:18:41;10.73;;;3.85;;
70183;SDS011;57554;51.546;6.776;2023-05-20T05:21:07;8.05;;;3.70;;
70183;SDS011;57554;51.546;6.776;2023-05-20T05:23:33;7.53;;;3.33;;
70183;SDS011;57554;51.546;6.776;2023-05-20T05:25:58;8.77;;;3.58;;
70183;SDS011;57554;51.546;6.776;2023-05-20T05:28:24;6.82;;;3.38;;
70183;SDS011;57554;51.546;6.776;2023-05-20T05:30:50;8.23;;;3.58;;
70183;SDS011;57554;51.546;6.776;2023-05-20T05:33:17;7.18;;;3.30;;
70183;SDS011;57554;51.546;6.776;2023-05-20T05:35:43;8.55;;;3.90;;
70183;SDS011;57554;51.546;6.776;2023-05-20T05:38:09;8.75;;;3.30;;
70183;SDS011;57554;51.546;6.776;2023-05-20T05:40:35;6.97;;;3.33;;
70183;SDS011;57554;51.546;6.776;2023-05-20T05:43:01;11.32;;;3.95;;
70183;SDS011;57554;51.546;6.776;2023-05-20T05:45:26;7.45;;;3.80;;
70183;SDS011;57554;51.546;6.776;2023-05-20T05:47:52;16.17;;;3.50;;
70183;SDS011;57554;51.546;6.776;2023-05-20T05:50:18;6.85;;;3.53;;
70183;SDS011;57554;51.546;6.776;2023-05-20T05:52:44;8.88;;;3.85;;
70183;SDS011;57554;51.546;6.776;2023-05-20T05:55:12;6.40;;;3.40;;
70183;SDS011;57554;51.546;6.776;2023-05-20T05:57:38;10.07;;;3.72;;
70183;SDS011;57554;51.546;6.776;2023-05-20T06:00:04;11.15;;;3.03;;
70183;SDS011;57554;51.546;6.776;2023-05-20T06:02:30;6.85;;;3.65;;
70183;SDS011;57554;51.546;6.776;2023-05-20T06:05:00;8.70;;;3.85;;
70183;SDS011;57554;51.546;6.776;2023-05-20T06:07:28;7.57;;;3.30;;
70183;SDS011;57554;51.546;6.776;2023-05-20T06:09:54;7.13;;;3.40;;
70183;SDS011;57554;51.546;6.776;2023-05-20T06:12:19;8.90;;;3.28;;
70183;SDS011;57554;51.546;6.776;2023-05-20T06:14:46;11.18;;;3.53;;
70183;SDS011;57554;51.546;6.776;2023-05-20T06:17:12;6.70;;;3.28;;
70183;SDS011;57554;51.546;6.776;2023-05-20T06:19:37;7.72;;;3.20;;
70183;SDS011;57554;51.546;6.776;2023-05-20T06:22:03;8.85;;;2.72;;
70183;SDS011;57554;51.546;6.776;2023-05-20T06:24:29;6.53;;;3.40;;
70183;SDS011;57554;51.546;6.776;2023-05-20T06:26:54;7.65;;;3.08;;
70183;SDS011;57554;51.546;6.776;2023-05-20T06:29:20;8.43;;;3.45;;
70183;SDS011;57554;51.546;6.776;2023-05-20T06:31:47;8.68;;;3.50;;
70183;SDS011;57554;51.546;6.776;2023-05-20T06:34:12;8.13;;;3.88;;
70183;SDS011;57554;51.546;6.776;2023-05-20T06:36:38;6.80;;;2.90;;
70183;SDS011;57554;51.546;6.776;2023-05-20T06:39:03;7.43;;;3.42;;
70183;SDS011;57554;51.546;6.776;2023-05-20T06:44:00;7.93;;;2.92;;
70183;SDS011;57554;51.546;6.776;2023-05-20T06:46:26;8.73;;;3.50;;
70183;SDS011;57554;51.546;6.776;2023-05-20T06:48:51;6.85;;;3.10;;
70183;SDS011;57554;51.546;6.776;2023-05-20T06:51:17;7.55;;;3.33;;
70183;SDS011;57554;51.546;6.776;2023-05-20T06:53:43;7.45;;;3.10;;
70183;SDS011;57554;51.546;6.776;2023-05-20T06:56:08;5.90;;;3.00;;
70183;SDS011;57554;51.546;6.776;2023-05-20T06:58:34;7.15;;;3.28;;
70183;SDS011;57554;51.546;6.776;2023-05-20T07:01:00;6.50;;;3.30;;
70183;SDS011;57554;51.546;6.776;2023-05-20T07:03:25;8.38;;;3.15;;
70183;SDS011;57554;51.546;6.776;2023-05-20T07:05:51;5.88;;;3.05;;
70183;SDS011;57554;51.546;6.776;2023-05-20T07:08:17;12.00;;;3.97;;
70183;SDS011;57554;51.546;6.776;2023-05-20T07:10:42;8.75;;;3.40;;
70183;SDS011;57554;51.546;6.776;2023-05-20T07:13:08;8.98;;;3.53;;
70183;SDS011;57554;51.546;6.776;2023-05-20T07:15:34;7.18;;;3.13;;
70183;SDS011;57554;51.546;6.776;2023-05-20T07:18:00;8.52;;;3.00;;
70183;SDS011;57554;51.546;6.776;2023-05-20T07:20:25;8.80;;;3.92;;
70183;SDS011;57554;51.546;6.776;2023-05-20T07:22:53;6.53;;;3.45;;
70183;SDS011;57554;51.546;6.776;2023-05-20T07:25:19;6.10;;;3.20;;
70183;SDS011;57554;51.546;6.776;2023-05-20T07:27:45;7.85;;;3.10;;
70183;SDS011;57554;51.546;6.776;2023-05-20T07:30:10;9.95;;;3.00;;
70183;SDS011;57554;51.546;6.776;2023-05-20T07:32:36;8.32;;;3.80;;
70183;SDS011;57554;51.546;6.776;2023-05-20T07:35:02;6.75;;;3.28;;
70183;SDS011;57554;51.546;6.776;2023-05-20T07:37:28;7.20;;;3.30;;
70183;SDS011;57554;51.546;6.776;2023-05-20T07:39:53;6.90;;;3.42;;
70183;SDS011;57554;51.546;6.776;2023-05-20T07:42:19;6.80;;;3.33;;
70183;SDS011;57554;51.546;6.776;2023-05-20T07:44:45;8.07;;;3.30;;
70183;SDS011;57554;51.546;6.776;2023-05-20T07:47:12;7.72;;;3.42;;
70183;SDS011;57554;51.546;6.776;2023-05-20T07:49:38;6.78;;;3.40;;
70183;SDS011;57554;51.546;6.776;2023-05-20T07:52:03;8.93;;;3.67;;
70183;SDS011;57554;51.546;6.776;2023-05-20T07:54:29;8.13;;;3.85;;
70183;SDS011;57554;51.546;6.776;2023-05-20T07:56:55;6.65;;;3.53;;
70183;SDS011;57554;51.546;6.776;2023-05-20T07:59:21;9.23;;;4.25;;
70183;SDS011;57554;51.546;6.776;2023-05-20T08:01:46;8.02;;;3.95;;
70183;SDS011;57554;51.546;6.776;2023-05-20T08:04:12;7.35;;;3.72;;
70183;SDS011;57554;51.546;6.776;2023-05-20T08:06:38;9.40;;;5.32;;
70183;SDS011;57554;51.546;6.776;2023-05-20T08:09:04;8.85;;;4.10;;
70183;SDS011;57554;51.546;6.776;2023-05-20T08:11:31;7.32;;;4.22;;
70183;SDS011;57554;51.546;6.776;2023-05-20T08:13:57;7.32;;;3.97;;
70183;SDS011;57554;51.546;6.776;2023-05-20T08:16:23;9.45;;;4.72;;
70183;SDS011;57554;51.546;6.776;2023-05-20T08:18:48;8.98;;;4.40;;
70183;SDS011;57554;51.546;6.776;2023-05-20T08:21:14;10.23;;;4.18;;
70183;SDS011;57554;51.546;6.776;2023-05-20T08:23:40;9.93;;;4.60;;
70183;SDS011;57554;51.546;6.776;2023-05-20T08:26:05;10.13;;;4.60;;
70183;SDS011;57554;51.546;6.776;2023-05-20T08:28:31;10.10;;;5.35;;
70183;SDS011;57554;51.546;6.776;2023-05-20T08:30:57;9.05;;;5.07;;
70183;SDS011;57554;51.546;6.776;2023-05-20T08:33:25;10.32;;;5.22;;
70183;SDS011;57554;51.546;6.776;2023-05-20T08:35:51;9.85;;;5.07;;
70183;SDS011;57554;51.546;6.776;2023-05-20T08:38:17;12.05;;;6.30;;
70183;SDS011;57554;51.546;6.776;2023-05-20T08:40:42;12.00;;;5.63;;
70183;SDS011;57554;51.546;6.776;2023-05-20T08:43:08;8.52;;;4.60;;
70183;SDS011;57554;51.546;6.776;2023-05-20T08:45:36;11.23;;;5.60;;
70183;SDS011;57554;51.546;6.776;2023-05-20T08:48:02;11.07;;;5.45;;
70183;SDS011;57554;51.546;6.776;2023-05-20T08:50:31;10.70;;;5.00;;
70183;SDS011;57554;51.546;6.776;2023-05-20T08:52:57;11.05;;;4.97;;
70183;SDS011;57554;51.546;6.776;2023-05-20T08:55:37;9.50;;;4.50;;
70183;SDS011;57554;51.546;6.776;2023-05-20T08:58:08;10.10;;;4.88;;
70183;SDS011;57554;51.546;6.776;2023-05-20T09:00:34;10.63;;;4.63;;
70183;SDS011;57554;51.546;6.776;2023-05-20T09:03:00;9.90;;;4.57;;
70183;SDS011;57554;51.546;6.776;2023-05-20T09:05:26;9.10;;;4.60;;
70183;SDS011;57554;51.546;6.776;2023-05-20T09:07:52;10.25;;;4.90;;
70183;SDS011;57554;51.546;6.776;2023-05-20T09:10:28;13.10;;;4.82;;
70183;SDS011;57554;51.546;6.776;2023-05-20T09:12:54;11.02;;;5.43;;
70183;SDS011;57554;51.546;6.776;2023-05-20T09:15:20;11.38;;;5.50;;
70183;SDS011;57554;51.546;6.776;2023-05-20T09:17:48;10.70;;;5.78;;
70183;SDS011;57554;51.546;6.776;2023-05-20T09:20:14;9.70;;;5.70;;
70183;SDS011;57554;51.546;6.776;2023-05-20T09:22:40;12.07;;;5.22;;
70183;SDS011;57554;51.546;6.776;2023-05-20T09:25:06;9.00;;;5.35;;
70183;SDS011;57554;51.546;6.776;2023-05-20T09:27:32;9.80;;;5.50;;
70183;SDS011;57554;51.546;6.776;2023-05-20T09:29:58;8.38;;;5.03;;
70183;SDS011;57554;51.546;6.776;2023-05-20T09:32:23;9.13;;;5.28;;
70183;SDS011;57554;51.546;6.776;2023-05-20T09:34:52;10.40;;;4.85;;
70183;SDS011;57554;51.546;6.776;2023-05-20T09:37:17;10.10;;;4.65;;
70183;SDS011;57554;51.546;6.776;2023-05-20T09:39:50;11.45;;;5.65;;
70183;SDS011;57554;51.546;6.776;2023-05-20T09:42:25;11.27;;;5.03;;
70183;SDS011;57554;51.546;6.776;2023-05-20T09:44:53;12.68;;;4.80;;
70183;SDS011;57554;51.546;6.776;2023-05-20T09:47:19;8.63;;;5.00;;
70183;SDS011;57554;51.546;6.776;2023-05-20T09:49:45;9.48;;;5.32;;
70183;SDS011;57554;51.546;6.776;2023-05-20T09:52:17;11.10;;;4.95;;
70183;SDS011;57554;51.546;6.776;2023-05-20T09:54:43;14.07;;;5.05;;
70183;SDS011;57554;51.546;6.776;2023-05-20T09:57:09;10.02;;;5.10;;
70183;SDS011;57554;51.546;6.776;2023-05-20T09:59:36;11.02;;;5.25;;
70183;SDS011;57554;51.546;6.776;2023-05-20T10:02:03;11.63;;;4.95;;
70183;SDS011;57554;51.546;6.776;2023-05-20T10:04:30;12.80;;;5.05;;
70183;SDS011;57554;51.546;6.776;2023-05-20T10:07:08;8.13;;;4.32;;
70183;SDS011;57554;51.546;6.776;2023-05-20T10:15:06;7.95;;;5.03;;
70183;SDS011;57554;51.546;6.776;2023-05-20T10:17:57;8.75;;;4.78;;
70183;SDS011;57554;51.546;6.776;2023-05-20T10:20:25;9.52;;;5.35;;
70183;SDS011;57554;51.546;6.776;2023-05-20T10:22:54;8.98;;;5.03;;
70183;SDS011;57554;51.546;6.776;2023-05-20T10:25:25;9.63;;;4.82;;
70183;SDS011;57554;51.546;6.776;2023-05-20T10:28:02;9.05;;;4.63;;
70183;SDS011;57554;51.546;6.776;2023-05-20T10:30:34;7.55;;;4.30;;
70183;SDS011;57554;51.546;6.776;2023-05-20T10:33:04;8.75;;;4.35;;
70183;SDS011;57554;51.546;6.776;2023-05-20T10:35:31;7.63;;;4.47;;
70183;SDS011;57554;51.546;6.776;2023-05-20T10:38:07;9.27;;;4.72;;
70183;SDS011;57554;51.546;6.776;2023-05-20T10:40:34;7.60;;;4.75;;
70183;SDS011;57554;51.546;6.776;2023-05-20T10:43:07;7.47;;;4.20;;
70183;SDS011;57554;51.546;6.776;2023-05-20T10:45:34;9.00;;;4.30;;
70183;SDS011;57554;51.546;6.776;2023-05-20T10:48:31;7.70;;;4.28;;
70183;SDS011;57554;51.546;6.776;2023-05-20T10:50:58;9.23;;;4.43;;
70183;SDS011;57554;51.546;6.776;2023-05-20T10:53:27;7.90;;;4.60;;
70183;SDS011;57554;51.546;6.776;2023-05-20T10:55:55;7.82;;;4.43;;
70183;SDS011;57554;51.546;6.776;2023-05-20T10:58:21;11.35;;;4.10;;
70183;SDS011;57554;51.546;6.776;2023-05-20T11:00:48;9.63;;;4.10;;
70183;SDS011;57554;51.546;6.776;2023-05-20T11:03:19;18.58;;;5.28;;
70183;SDS011;57554;51.546;6.776;2023-05-20T11:05:46;6.65;;;3.92;;
70183;SDS011;57554;51.546;6.776;2023-05-20T11:08:12;7.68;;;4.72;;
70183;SDS011;57554;51.546;6.776;2023-05-20T11:10:41;6.85;;;4.10;;
70183;SDS011;57554;51.546;6.776;2023-05-20T11:13:12;9.15;;;4.40;;
70183;SDS011;57554;51.546;6.776;2023-05-20T11:15:39;11.25;;;4.07;;
70183;SDS011;57554;51.546;6.776;2023-05-20T11:18:06;10.73;;;4.88;;
70183;SDS011;57554;51.546;6.776;2023-05-20T11:20:31;6.70;;;4.00;;
70183;SDS011;57554;51.546;6.776;2023-05-20T11:23:00;9.63;;;4.18;;
70183;SDS011;57554;51.546;6.776;2023-05-20T11:25:27;9.02;;;4.22;;
70183;SDS011;57554;51.546;6.776;2023-05-20T11:27:53;8.05;;;4.65;;
70183;SDS011;57554;51.546;6.776;2023-05-20T11:30:19;9.95;;;4.50;;
70183;SDS011;57554;51.546;6.776;2023-05-20T11:33:03;7.57;;;4.28;;
70183;SDS011;57554;51.546;6.776;2023-05-20T11:35:52;6.80;;;4.20;;
70183;SDS011;57554;51.546;6.776;2023-05-20T11:38:19;9.52;;;4.65;;
70183;SDS011;57554;51.546;6.776;2023-05-20T11:40:46;8.10;;;4.30;;
70183;SDS011;57554;51.546;6.776;2023-05-20T11:43:16;10.75;;;4.65;;
70183;SDS011;57554;51.546;6.776;2023-05-20T11:45:43;8.68;;;4.70;;
70183;SDS011;57554;51.546;6.776;2023-05-20T11:48:10;9.25;;;4.30;;
70183;SDS011;57554;51.546;6.776;2023-05-20T11:54:01;10.77;;;3.70;;
70183;SDS011;57554;51.546;6.776;2023-05-20T11:56:46;6.50;;;3.92;;
70183;SDS011;57554;51.546;6.776;2023-05-20T11:59:11;6.57;;;3.97;;
70183;SDS011;57554;51.546;6.776;2023-05-20T12:01:38;8.82;;;4.38;;
70183;SDS011;57554;51.546;6.776;2023-05-20T12:04:10;9.95;;;4.10;;
70183;SDS011;57554;51.546;6.776;2023-05-20T12:06:40;9.40;;;4.28;;
70183;SDS011;57554;51.546;6.776;2023-05-20T12:09:06;9.10;;;4.07;;
70183;SDS011;57554;51.546;6.776;2023-05-20T12:11:36;8.15;;;4.70;;
70183;SDS011;57554;51.546;6.776;2023-05-20T12:14:04;7.93;;;3.92;;
70183;SDS011;57554;51.546;6.776;2023-05-20T12:16:31;10.80;;;4.25;;
70183;SDS011;57554;51.546;6.776;2023-05-20T12:18:58;7.72;;;4.22;;
70183;SDS011;57554;51.546;6.776;2023-05-20T12:21:24;8.13;;;3.85;;
70183;SDS011;57554;51.546;6.776;2023-05-20T12:23:53;10.43;;;4.30;;
70183;SDS011;57554;51.546;6.776;2023-05-20T12:26:25;8.40;;;4.25;;
70183;SDS011;57554;51.546;6.776;2023-05-20T12:28:52;7.68;;;3.88;;
70183;SDS011;57554;51.546;6.776;2023-05-20T12:31:18;6.60;;;3.60;;
70183;SDS011;57554;51.546;6.776;2023-05-20T12:33:44;6.38;;;3.22;;
70183;SDS011;57554;51.546;6.776;2023-05-20T12:36:09;6.13;;;3.20;;
70183;SDS011;57554;51.546;6.776;2023-05-20T12:41:57;5.65;;;2.80;;
70183;SDS011;57554;51.546;6.776;2023-05-20T12:44:23;6.05;;;3.20;;
70183;SDS011;57554;51.546;6.776;2023-05-20T12:46:48;6.93;;;3.30;;
70183;SDS011;57554;51.546;6.776;2023-05-20T12:49:14;7.82;;;3.38;;
70183;SDS011;57554;51.546;6.776;2023-05-20T12:51:40;6.85;;;3.38;;
70183;SDS011;57554;51.546;6.776;2023-05-20T12:54:06;6.88;;;2.95;;
70183;SDS011;57554;51.546;6.776;2023-05-20T12:56:38;6.07;;;3.30;;
70183;SDS011;57554;51.546;6.776;2023-05-20T12:59:04;7.18;;;3.30;;
70183;SDS011;57554;51.546;6.776;2023-05-20T13:04:52;6.93;;;2.92;;
70183;SDS011;57554;51.546;6.776;2023-05-20T13:07:18;6.95;;;2.97;;
70183;SDS011;57554;51.546;6.776;2023-05-20T13:09:43;8.40;;;3.03;;
70183;SDS011;57554;51.546;6.776;2023-05-20T13:12:09;6.55;;;2.80;;
70183;SDS011;57554;51.546;6.776;2023-05-20T13:14:35;6.25;;;3.13;;
70183;SDS011;57554;51.546;6.776;2023-05-20T13:17:01;4.90;;;2.85;;
70183;SDS011;57554;51.546;6.776;2023-05-20T13:19:26;5.75;;;2.95;;
70183;SDS011;57554;51.546;6.776;2023-05-20T13:25:14;6.55;;;2.88;;
70183;SDS011;57554;51.546;6.776;2023-05-20T13:27:43;6.88;;;2.70;;
70183;SDS011;57554;51.546;6.776;2023-05-20T13:30:08;5.80;;;2.90;;
70183;SDS011;57554;51.546;6.776;2023-05-20T13:32:40;5.32;;;2.60;;
70183;SDS011;57554;51.546;6.776;2023-05-20T13:35:12;5.55;;;2.60;;
70183;SDS011;57554;51.546;6.776;2023-05-20T13:37:56;5.97;;;3.30;;
70183;SDS011;57554;51.546;6.776;2023-05-20T13:40:22;6.05;;;3.00;;
70183;SDS011;57554;51.546;6.776;2023-05-20T13:42:48;7.57;;;2.88;;
70183;SDS011;57554;51.546;6.776;2023-05-20T13:45:13;6.75;;;2.30;;
70183;SDS011;57554;51.546;6.776;2023-05-20T13:47:39;4.70;;;2.50;;
70183;SDS011;57554;51.546;6.776;2023-05-20T13:50:05;6.72;;;2.50;;
70183;SDS011;57554;51.546;6.776;2023-05-20T13:52:31;5.47;;;2.47;;
70183;SDS011;57554;51.546;6.776;2023-05-20T13:54:57;5.35;;;2.22;;
70183;SDS011;57554;51.546;6.776;2023-05-20T13:57:22;7.13;;;2.65;;
70183;SDS011;57554;51.546;6.776;2023-05-20T13:59:48;5.80;;;2.50;;
70183;SDS011;57554;51.546;6.776;2023-05-20T14:02:14;6.68;;;2.22;;
70183;SDS011;57554;51.546;6.776;2023-05-20T14:04:40;4.97;;;2.42;;
70183;SDS011;57554;51.546;6.776;2023-05-20T14:07:08;5.85;;;2.30;;
70183;SDS011;57554;51.546;6.776;2023-05-20T14:09:34;6.72;;;2.30;;
70183;SDS011;57554;51.546;6.776;2023-05-20T14:12:00;5.03;;;2.17;;
70183;SDS011;57554;51.546;6.776;2023-05-20T14:14:32;5.15;;;2.30;;
70183;SDS011;57554;51.546;6.776;2023-05-20T14:17:04;5.28;;;2.20;;
70183;SDS011;57554;51.546;6.776;2023-05-20T14:19:39;6.35;;;2.33;;
70183;SDS011;57554;51.546;6.776;2023-05-20T14:22:05;4.47;;;2.05;;
70183;SDS011;57554;51.546;6.776;2023-05-20T14:24:36;5.07;;;2.30;;
70183;SDS011;57554;51.546;6.776;2023-05-20T14:27:02;5.72;;;2.13;;
70183;SDS011;57554;51.546;6.776;2023-05-20T14:29:28;7.40;;;2.13;;
70183;SDS011;57554;51.546;6.776;2023-05-20T14:31:53;6.90;;;2.00;;
70183;SDS011;57554;51.546;6.776;2023-05-20T14:34:19;9.65;;;2.60;;
70183;SDS011;57554;51.546;6.776;2023-05-20T14:36:48;6.85;;;2.60;;
70183;SDS011;57554;51.546;6.776;2023-05-20T14:39:16;5.25;;;2.42;;
70183;SDS011;57554;51.546;6.776;2023-05-20T14:41:45;6.32;;;2.47;;
70183;SDS011;57554;51.546;6.776;2023-05-20T14:44:14;5.50;;;2.33;;
70183;SDS011;57554;51.546;6.776;2023-05-20T14:46:39;5.85;;;2.67;;
70183;SDS011;57554;51.546;6.776;2023-05-20T14:49:05;5.07;;;1.92;;
70183;SDS011;57554;51.546;6.776;2023-05-20T14:51:31;4.88;;;2.13;;
70183;SDS011;57554;51.546;6.776;2023-05-20T14:53:56;8.98;;;2.83;;
70183;SDS011;57554;51.546;6.776;2023-05-20T14:59:57;6.00;;;2.50;;
70183;SDS011;57554;51.546;6.776;2023-05-20T15:02:23;5.43;;;2.47;;
70183;SDS011;57554;51.546;6.776;2023-05-20T15:08:10;7.00;;;2.28;;
70183;SDS011;57554;51.546;6.776;2023-05-20T15:10:36;16.60;;;2.70;;
70183;SDS011;57554;51.546;6.776;2023-05-20T15:15:57;5.22;;;2.65;;
70183;SDS011;57554;51.546;6.776;2023-05-20T15:18:22;12.73;;;2.70;;
70183;SDS011;57554;51.546;6.776;2023-05-20T15:20:48;4.80;;;2.40;;
70183;SDS011;57554;51.546;6.776;2023-05-20T15:23:16;5.75;;;2.50;;
70183;SDS011;57554;51.546;6.776;2023-05-20T15:25:57;9.43;;;2.40;;
70183;SDS011;57554;51.546;6.776;2023-05-20T15:28:23;6.40;;;2.53;;
70183;SDS011;57554;51.546;6.776;2023-05-20T15:30:50;5.38;;;2.45;;